LGL9YP ELLX-EDDH
Flight info
| Callsign | LGL9YP |
|---|---|
| Flight time | 1h 29m |
| Altitude | 37000 |
| Route | DIK N853 ONUNE/N0416F230 N853 HMM M170 BASUM Y850 MUBZI M105 RIBSO |
| Aircraft | B738/M-SDE2E3FGHIRWXY/LB1 |
Departure
| Time | 2026-04-30 18:46 |
|---|---|
| Airport | Luxembourg-Findel International Airport (ELLX) |
Arrival
| Time | 2026-04-30 20:16 |
|---|---|
| Airport | Hamburg Helmut Schmidt Airport (EDDH) |
| Time | Latitude | Longitude | Altitude | Speed | Heading |
|---|---|---|---|---|---|
| 2026-04-30 18:12 | 49.63389 | 6.21794 | 1229 ft | 0 kts | 330° |
| 2026-04-30 18:30 | 49.63388 | 6.21794 | 1229 ft | 2 kts | 330° |
| 2026-04-30 18:31 | 49.63366 | 6.21814 | 1229 ft | 4 kts | 330° |
| 2026-04-30 18:31 | 49.63349 | 6.21872 | 1229 ft | 2 kts | 259° |
| 2026-04-30 18:32 | 49.63353 | 6.21905 | 1229 ft | 0 kts | 259° |
| 2026-04-30 18:35 | 49.63351 | 6.21890 | 1229 ft | 3 kts | 259° |
| 2026-04-30 18:35 | 49.63339 | 6.21843 | 1229 ft | 6 kts | 244° |
| 2026-04-30 18:36 | 49.63260 | 6.21846 | 1229 ft | 7 kts | 150° |
| 2026-04-30 18:36 | 49.63215 | 6.21887 | 1227 ft | 8 kts | 149° |
| 2026-04-30 18:36 | 49.63131 | 6.21821 | 1225 ft | 9 kts | 243° |
| 2026-04-30 18:37 | 49.63101 | 6.21721 | 1224 ft | 12 kts | 245° |
| 2026-04-30 18:37 | 49.63058 | 6.21583 | 1225 ft | 19 kts | 244° |
| 2026-04-30 18:37 | 49.62992 | 6.21373 | 1228 ft | 23 kts | 244° |
| 2026-04-30 18:37 | 49.62923 | 6.21156 | 1232 ft | 22 kts | 244° |
| 2026-04-30 18:38 | 49.62859 | 6.20942 | 1233 ft | 22 kts | 245° |
| 2026-04-30 18:38 | 49.62786 | 6.20744 | 1238 ft | 21 kts | 229° |
| 2026-04-30 18:38 | 49.62679 | 6.20601 | 1241 ft | 20 kts | 219° |
| 2026-04-30 18:38 | 49.62579 | 6.20439 | 1233 ft | 22 kts | 229° |
| 2026-04-30 18:39 | 49.62482 | 6.20242 | 1224 ft | 25 kts | 238° |
| 2026-04-30 18:39 | 49.62396 | 6.20017 | 1210 ft | 23 kts | 240° |
| 2026-04-30 18:39 | 49.62315 | 6.19785 | 1197 ft | 24 kts | 241° |
| 2026-04-30 18:39 | 49.62242 | 6.19595 | 1186 ft | 10 kts | 236° |
| 2026-04-30 18:40 | 49.62192 | 6.19554 | 1184 ft | 6 kts | 176° |
| 2026-04-30 18:40 | 49.62179 | 6.19561 | 1186 ft | 0 kts | 155° |
| 2026-04-30 18:45 | 49.62096 | 6.19637 | 1190 ft | 6 kts | 116° |
| 2026-04-30 18:45 | 49.62099 | 6.19679 | 1192 ft | 0 kts | 64° |
| 2026-04-30 18:45 | 49.62099 | 6.19680 | 1192 ft | 1 kts | 64° |
| 2026-04-30 18:46 | 49.62202 | 6.19962 | 1210 ft | 67 kts | 59° |
| 2026-04-30 18:46 | 49.62527 | 6.20838 | 1234 ft | 122 kts | 60° |
| 2026-04-30 18:46 | 49.63011 | 6.22194 | 1327 ft | 161 kts | 63° |
| 2026-04-30 18:46 | 49.63594 | 6.23756 | 1895 ft | 170 kts | 62° |
| 2026-04-30 18:47 | 49.64186 | 6.25305 | 2722 ft | 171 kts | 64° |
| 2026-04-30 18:47 | 49.64826 | 6.27023 | 2970 ft | 198 kts | 65° |
| 2026-04-30 18:47 | 49.65546 | 6.28951 | 3300 ft | 212 kts | 65° |
| 2026-04-30 18:47 | 49.66297 | 6.30964 | 3732 ft | 224 kts | 64° |
| 2026-04-30 18:48 | 49.67100 | 6.33122 | 3989 ft | 241 kts | 64° |
| 2026-04-30 18:48 | 49.67955 | 6.35424 | 4593 ft | 251 kts | 64° |
| 2026-04-30 18:48 | 49.68871 | 6.37760 | 5323 ft | 261 kts | 56° |
| 2026-04-30 18:48 | 49.70377 | 6.39410 | 6060 ft | 276 kts | 24° |
| 2026-04-30 18:49 | 49.72267 | 6.39860 | 6856 ft | 285 kts | 0° |
| 2026-04-30 18:49 | 49.74210 | 6.39112 | 7585 ft | 294 kts | 335° |
| 2026-04-30 18:49 | 49.75838 | 6.37191 | 8351 ft | 298 kts | 311° |
| 2026-04-30 18:49 | 49.77059 | 6.34586 | 9124 ft | 300 kts | 303° |
| 2026-04-30 18:50 | 49.78192 | 6.31852 | 9882 ft | 303 kts | 302° |
| 2026-04-30 18:50 | 49.79314 | 6.29106 | 10555 ft | 308 kts | 303° |
| 2026-04-30 18:50 | 49.80519 | 6.26192 | 10771 ft | 330 kts | 303° |
| 2026-04-30 18:50 | 49.81815 | 6.23108 | 10944 ft | 352 kts | 303° |
| 2026-04-30 18:51 | 49.83197 | 6.19845 | 11112 ft | 373 kts | 303° |
| 2026-04-30 18:51 | 49.84735 | 6.16504 | 11321 ft | 388 kts | 314° |
| 2026-04-30 18:51 | 49.86887 | 6.14071 | 11810 ft | 391 kts | 337° |
| 2026-04-30 18:51 | 49.89474 | 6.12924 | 12507 ft | 387 kts | 357° |
| 2026-04-30 18:52 | 49.92164 | 6.12827 | 13159 ft | 388 kts | 3° |
| 2026-04-30 18:52 | 49.94879 | 6.12880 | 13784 ft | 392 kts | 3° |
| 2026-04-30 18:52 | 49.97621 | 6.12952 | 14390 ft | 396 kts | 3° |
| 2026-04-30 18:52 | 50.00386 | 6.13013 | 15025 ft | 398 kts | 3° |
| 2026-04-30 18:53 | 50.03165 | 6.13056 | 15665 ft | 401 kts | 3° |
| 2026-04-30 18:53 | 50.05964 | 6.13084 | 16300 ft | 404 kts | 3° |
| 2026-04-30 18:53 | 50.08783 | 6.13103 | 16898 ft | 407 kts | 3° |
| 2026-04-30 18:53 | 50.11624 | 6.13118 | 17531 ft | 409 kts | 3° |
| 2026-04-30 18:54 | 50.14479 | 6.13131 | 18136 ft | 412 kts | 3° |
| 2026-04-30 18:54 | 50.17324 | 6.13144 | 18698 ft | 416 kts | 3° |
| 2026-04-30 18:54 | 50.20265 | 6.13156 | 19223 ft | 419 kts | 3° |
| 2026-04-30 18:54 | 50.23149 | 6.13169 | 19739 ft | 421 kts | 3° |
| 2026-04-30 18:55 | 50.26087 | 6.13183 | 20250 ft | 424 kts | 3° |
| 2026-04-30 18:55 | 50.32004 | 6.13525 | 21274 ft | 426 kts | 11° |
| 2026-04-30 18:55 | 50.34936 | 6.14262 | 21750 ft | 428 kts | 12° |
| 2026-04-30 18:56 | 50.40847 | 6.15917 | 22669 ft | 434 kts | 12° |
| 2026-04-30 18:56 | 50.43832 | 6.16723 | 23120 ft | 437 kts | 12° |
| 2026-04-30 18:56 | 50.46851 | 6.17511 | 23562 ft | 440 kts | 12° |
| 2026-04-30 18:57 | 50.52891 | 6.19051 | 24333 ft | 445 kts | 12° |
| 2026-04-30 18:57 | 50.55956 | 6.19833 | 24713 ft | 447 kts | 12° |
| 2026-04-30 18:57 | 50.59035 | 6.20612 | 25080 ft | 450 kts | 11° |
| 2026-04-30 18:58 | 50.65250 | 6.22148 | 25799 ft | 454 kts | 11° |
| 2026-04-30 18:58 | 50.68372 | 6.22964 | 26117 ft | 455 kts | 14° |
| 2026-04-30 18:58 | 50.71378 | 6.24467 | 26434 ft | 453 kts | 26° |
| 2026-04-30 18:59 | 50.76593 | 6.29850 | 27054 ft | 453 kts | 44° |
| 2026-04-30 19:00 | 50.83507 | 6.40183 | 27977 ft | 459 kts | 45° |
| 2026-04-30 19:00 | 50.85839 | 6.43644 | 28310 ft | 460 kts | 44° |
| 2026-04-30 19:00 | 50.90507 | 6.50513 | 29254 ft | 456 kts | 44° |
| 2026-04-30 19:01 | 50.95143 | 6.57328 | 30133 ft | 454 kts | 44° |
| 2026-04-30 19:01 | 50.97472 | 6.60760 | 30504 ft | 454 kts | 44° |
| 2026-04-30 19:02 | 51.02034 | 6.67543 | 31415 ft | 446 kts | 46° |
| 2026-04-30 19:02 | 51.05848 | 6.75177 | 32065 ft | 444 kts | 55° |
| 2026-04-30 19:03 | 51.09494 | 6.83108 | 32704 ft | 443 kts | 54° |
| 2026-04-30 19:03 | 51.13189 | 6.90931 | 33420 ft | 441 kts | 53° |
| 2026-04-30 19:04 | 51.16870 | 6.98736 | 33998 ft | 441 kts | 53° |
| 2026-04-30 19:04 | 51.20536 | 7.06542 | 34636 ft | 438 kts | 53° |
| 2026-04-30 19:05 | 51.24155 | 7.14275 | 35129 ft | 438 kts | 54° |
| 2026-04-30 19:05 | 51.27795 | 7.22079 | 35838 ft | 432 kts | 53° |
| 2026-04-30 19:06 | 51.31350 | 7.29719 | 36325 ft | 431 kts | 53° |
| 2026-04-30 19:06 | 51.33136 | 7.33567 | 36517 ft | 432 kts | 53° |
| 2026-04-30 19:06 | 51.37238 | 7.40518 | 36913 ft | 433 kts | 36° |
| 2026-04-30 19:07 | 51.42639 | 7.44730 | 37347 ft | 435 kts | 18° |
| 2026-04-30 19:07 | 51.45563 | 7.46067 | 37331 ft | 438 kts | 17° |
| 2026-04-30 19:08 | 51.57163 | 7.51713 | 37343 ft | 432 kts | 19° |
| 2026-04-30 19:09 | 51.65696 | 7.56026 | 37340 ft | 429 kts | 19° |
| 2026-04-30 19:09 | 51.71368 | 7.58964 | 37350 ft | 427 kts | 23° |
| 2026-04-30 19:10 | 51.81944 | 7.67710 | 37363 ft | 429 kts | 28° |
| 2026-04-30 19:11 | 51.89112 | 7.76249 | 37384 ft | 431 kts | 46° |
| 2026-04-30 19:12 | 51.93214 | 7.83273 | 37398 ft | 433 kts | 46° |
| 2026-04-30 19:12 | 51.97389 | 7.90358 | 37384 ft | 435 kts | 46° |
| 2026-04-30 19:13 | 52.05796 | 8.04509 | 37378 ft | 435 kts | 46° |
| 2026-04-30 19:14 | 52.09995 | 8.11605 | 37386 ft | 435 kts | 46° |
| 2026-04-30 19:14 | 52.14161 | 8.18666 | 37389 ft | 435 kts | 46° |
| 2026-04-30 19:15 | 52.18356 | 8.25775 | 37389 ft | 435 kts | 44° |
| 2026-04-30 19:15 | 52.23212 | 8.31566 | 37396 ft | 434 kts | 28° |
| 2026-04-30 19:15 | 52.25893 | 8.33823 | 37398 ft | 434 kts | 27° |
| 2026-04-30 19:16 | 52.28598 | 8.36077 | 36939 ft | 439 kts | 27° |
| 2026-04-30 19:16 | 52.31304 | 8.38367 | 36422 ft | 437 kts | 28° |
| 2026-04-30 19:16 | 52.36667 | 8.43007 | 35195 ft | 437 kts | 28° |
| 2026-04-30 19:17 | 52.39350 | 8.45355 | 34562 ft | 438 kts | 28° |
| 2026-04-30 19:17 | 52.44698 | 8.50054 | 33128 ft | 440 kts | 28° |
| 2026-04-30 19:17 | 52.47395 | 8.52426 | 32438 ft | 440 kts | 28° |
| 2026-04-30 19:18 | 52.51003 | 8.55605 | 31479 ft | 441 kts | 28° |
| 2026-04-30 19:18 | 52.55496 | 8.59568 | 30235 ft | 442 kts | 28° |
| 2026-04-30 19:18 | 52.58208 | 8.61965 | 29380 ft | 442 kts | 28° |
| 2026-04-30 19:19 | 52.60897 | 8.64351 | 28849 ft | 436 kts | 28° |
| 2026-04-30 19:19 | 52.63537 | 8.66699 | 28251 ft | 425 kts | 28° |
| 2026-04-30 19:19 | 52.68566 | 8.71179 | 27183 ft | 399 kts | 29° |
| 2026-04-30 19:20 | 52.70946 | 8.73302 | 26616 ft | 389 kts | 29° |
| 2026-04-30 19:20 | 52.73298 | 8.75403 | 26136 ft | 379 kts | 29° |
| 2026-04-30 19:20 | 52.78082 | 8.78393 | 25254 ft | 361 kts | 13° |
| 2026-04-30 19:21 | 52.80548 | 8.78930 | 24818 ft | 355 kts | 4° |
| 2026-04-30 19:21 | 52.85374 | 8.78870 | 24094 ft | 338 kts | 1° |
| 2026-04-30 19:22 | 52.89970 | 8.78770 | 23277 ft | 323 kts | 2° |
| 2026-04-30 19:22 | 52.96500 | 8.78716 | 22128 ft | 303 kts | 6° |
| 2026-04-30 19:23 | 53.02483 | 8.80042 | 21180 ft | 280 kts | 11° |
| 2026-04-30 19:24 | 53.06267 | 8.80939 | 20569 ft | 271 kts | 11° |
| 2026-04-30 19:24 | 53.08137 | 8.81372 | 20288 ft | 275 kts | 11° |
| 2026-04-30 19:24 | 53.12039 | 8.82275 | 19755 ft | 289 kts | 11° |
| 2026-04-30 19:25 | 53.17931 | 8.83630 | 19426 ft | 278 kts | 14° |
| 2026-04-30 19:26 | 53.21154 | 8.86677 | 19439 ft | 272 kts | 50° |
| 2026-04-30 19:26 | 53.23543 | 8.91633 | 19417 ft | 273 kts | 53° |
| 2026-04-30 19:26 | 53.24838 | 8.93937 | 19407 ft | 273 kts | 38° |
| 2026-04-30 19:27 | 53.28273 | 8.96530 | 19421 ft | 274 kts | 23° |
| 2026-04-30 19:27 | 53.31868 | 8.98675 | 19423 ft | 274 kts | 22° |
| 2026-04-30 19:28 | 53.33673 | 8.99742 | 19414 ft | 275 kts | 22° |
| 2026-04-30 19:28 | 53.37295 | 9.01878 | 19420 ft | 277 kts | 22° |
| 2026-04-30 19:29 | 53.40977 | 9.04056 | 19103 ft | 286 kts | 22° |
| 2026-04-30 19:29 | 53.42854 | 9.05174 | 18845 ft | 287 kts | 22° |
| 2026-04-30 19:30 | 53.48437 | 9.08486 | 17908 ft | 283 kts | 22° |
| 2026-04-30 19:30 | 53.52149 | 9.10668 | 17279 ft | 282 kts | 22° |
| 2026-04-30 19:31 | 53.55837 | 9.12821 | 16674 ft | 280 kts | 22° |
| 2026-04-30 19:31 | 53.57681 | 9.13891 | 16374 ft | 279 kts | 22° |
| 2026-04-30 19:31 | 53.60732 | 9.15653 | 15882 ft | 278 kts | 23° |
| 2026-04-30 19:32 | 53.62561 | 9.16706 | 15591 ft | 278 kts | 23° |
| 2026-04-30 19:32 | 53.64391 | 9.17755 | 15291 ft | 277 kts | 23° |
| 2026-04-30 19:32 | 53.66217 | 9.18803 | 15002 ft | 277 kts | 22° |
| 2026-04-30 19:32 | 53.68622 | 9.20188 | 14625 ft | 276 kts | 22° |
| 2026-04-30 19:33 | 53.70425 | 9.21224 | 14474 ft | 270 kts | 22° |
| 2026-04-30 19:33 | 53.71611 | 9.21901 | 14431 ft | 264 kts | 22° |
| 2026-04-30 19:33 | 53.73334 | 9.22877 | 14428 ft | 258 kts | 22° |
| 2026-04-30 19:33 | 53.75016 | 9.23827 | 14431 ft | 259 kts | 22° |
| 2026-04-30 19:34 | 53.76637 | 9.25102 | 14415 ft | 256 kts | 45° |
| 2026-04-30 19:34 | 53.77778 | 9.27375 | 14447 ft | 256 kts | 53° |
| 2026-04-30 19:34 | 53.80145 | 9.31885 | 14429 ft | 256 kts | 49° |
| 2026-04-30 19:35 | 53.81366 | 9.34075 | 14423 ft | 255 kts | 52° |
| 2026-04-30 19:35 | 53.82214 | 9.36645 | 14433 ft | 250 kts | 75° |
| 2026-04-30 19:35 | 53.82429 | 9.39537 | 14428 ft | 249 kts | 94° |
| 2026-04-30 19:35 | 53.82057 | 9.42396 | 14436 ft | 250 kts | 109° |
| 2026-04-30 19:36 | 53.81160 | 9.44925 | 14426 ft | 256 kts | 131° |
| 2026-04-30 19:36 | 53.79675 | 9.46552 | 14435 ft | 264 kts | 156° |
| 2026-04-30 19:36 | 53.75947 | 9.46565 | 14424 ft | 283 kts | 199° |
| 2026-04-30 19:37 | 53.74192 | 9.45001 | 14445 ft | 287 kts | 207° |
| 2026-04-30 19:37 | 53.72462 | 9.43276 | 14441 ft | 290 kts | 207° |
| 2026-04-30 19:37 | 53.70719 | 9.41544 | 14440 ft | 292 kts | 207° |
| 2026-04-30 19:37 | 53.69139 | 9.39380 | 14405 ft | 298 kts | 232° |
| 2026-04-30 19:38 | 53.68281 | 9.36231 | 14430 ft | 299 kts | 259° |
| 2026-04-30 19:38 | 53.68315 | 9.32769 | 14424 ft | 296 kts | 287° |
| 2026-04-30 19:38 | 53.69222 | 9.29722 | 14427 ft | 289 kts | 315° |
| 2026-04-30 19:38 | 53.70770 | 9.27700 | 14430 ft | 279 kts | 341° |
| 2026-04-30 19:39 | 53.72612 | 9.26993 | 14431 ft | 269 kts | 5° |
| 2026-04-30 19:39 | 53.74429 | 9.27443 | 14429 ft | 262 kts | 25° |
| 2026-04-30 19:39 | 53.76038 | 9.28798 | 14426 ft | 259 kts | 33° |
| 2026-04-30 19:39 | 53.77597 | 9.30335 | 14171 ft | 265 kts | 34° |
| 2026-04-30 19:40 | 53.79192 | 9.31913 | 13910 ft | 266 kts | 34° |
| 2026-04-30 19:40 | 53.80790 | 9.33482 | 13643 ft | 264 kts | 33° |
| 2026-04-30 19:40 | 53.82261 | 9.35260 | 13444 ft | 254 kts | 52° |
| 2026-04-30 19:40 | 53.83102 | 9.37796 | 13438 ft | 246 kts | 74° |
| 2026-04-30 19:41 | 53.83340 | 9.40651 | 13440 ft | 247 kts | 93° |
| 2026-04-30 19:41 | 53.82941 | 9.43484 | 13433 ft | 251 kts | 114° |
| 2026-04-30 19:41 | 53.81913 | 9.45886 | 13422 ft | 257 kts | 134° |
| 2026-04-30 19:41 | 53.80351 | 9.47481 | 13153 ft | 271 kts | 158° |
| 2026-04-30 19:42 | 53.78455 | 9.47821 | 12908 ft | 280 kts | 183° |
| 2026-04-30 19:42 | 53.76590 | 9.46832 | 12654 ft | 284 kts | 205° |
| 2026-04-30 19:42 | 53.74909 | 9.45198 | 12481 ft | 280 kts | 207° |
| 2026-04-30 19:42 | 53.73253 | 9.43538 | 12433 ft | 274 kts | 207° |
| 2026-04-30 19:43 | 53.71623 | 9.41921 | 12421 ft | 270 kts | 207° |
| 2026-04-30 19:43 | 53.70025 | 9.40225 | 12422 ft | 276 kts | 218° |
| 2026-04-30 19:43 | 53.68877 | 9.37606 | 12432 ft | 283 kts | 246° |
| 2026-04-30 19:44 | 53.68948 | 9.31151 | 12421 ft | 281 kts | 300° |
| 2026-04-30 19:44 | 53.70158 | 9.28640 | 12427 ft | 274 kts | 327° |
| 2026-04-30 19:44 | 53.71816 | 9.27302 | 12428 ft | 266 kts | 353° |
| 2026-04-30 19:44 | 53.73628 | 9.27189 | 12441 ft | 259 kts | 13° |
| 2026-04-30 19:45 | 53.75307 | 9.28129 | 12428 ft | 253 kts | 32° |
| 2026-04-30 19:45 | 53.76831 | 9.29592 | 12432 ft | 253 kts | 33° |
| 2026-04-30 19:45 | 53.78358 | 9.31098 | 12421 ft | 254 kts | 33° |
| 2026-04-30 19:45 | 53.79906 | 9.32620 | 12167 ft | 260 kts | 33° |
| 2026-04-30 19:46 | 53.81470 | 9.34170 | 11922 ft | 259 kts | 37° |
| 2026-04-30 19:46 | 53.82689 | 9.36313 | 11651 ft | 252 kts | 64° |
| 2026-04-30 19:46 | 53.83209 | 9.39076 | 11488 ft | 244 kts | 85° |
| 2026-04-30 19:46 | 53.83063 | 9.41906 | 11440 ft | 244 kts | 106° |
| 2026-04-30 19:47 | 53.82262 | 9.44431 | 11433 ft | 247 kts | 129° |
| 2026-04-30 19:47 | 53.81411 | 9.45733 | 11435 ft | 252 kts | 143° |
| 2026-04-30 19:47 | 53.79177 | 9.46930 | 11427 ft | 264 kts | 176° |
| 2026-04-30 19:47 | 53.77366 | 9.46370 | 11425 ft | 270 kts | 200° |
| 2026-04-30 19:48 | 53.75702 | 9.44856 | 11440 ft | 273 kts | 207° |
| 2026-04-30 19:48 | 53.74061 | 9.43221 | 11429 ft | 274 kts | 207° |
| 2026-04-30 19:48 | 53.72416 | 9.41590 | 11420 ft | 274 kts | 207° |
| 2026-04-30 19:48 | 53.70773 | 9.39944 | 11424 ft | 275 kts | 212° |
| 2026-04-30 19:49 | 53.69489 | 9.37565 | 11429 ft | 278 kts | 242° |
| 2026-04-30 19:49 | 53.69382 | 9.31277 | 11426 ft | 275 kts | 298° |
| 2026-04-30 19:49 | 53.70509 | 9.28810 | 11426 ft | 268 kts | 326° |
| 2026-04-30 19:50 | 53.72139 | 9.27452 | 11433 ft | 260 kts | 352° |
| 2026-04-30 19:50 | 53.73911 | 9.27364 | 11439 ft | 253 kts | 14° |
| 2026-04-30 19:50 | 53.75551 | 9.28323 | 11437 ft | 249 kts | 31° |
| 2026-04-30 19:50 | 53.77062 | 9.29761 | 11431 ft | 250 kts | 34° |
| 2026-04-30 19:51 | 53.78567 | 9.31266 | 11428 ft | 252 kts | 34° |
| 2026-04-30 19:51 | 53.80080 | 9.32769 | 11428 ft | 253 kts | 33° |
| 2026-04-30 19:51 | 53.81593 | 9.34292 | 11424 ft | 253 kts | 39° |
| 2026-04-30 19:51 | 53.82721 | 9.36479 | 11437 ft | 246 kts | 66° |
| 2026-04-30 19:52 | 53.83178 | 9.39194 | 11427 ft | 244 kts | 86° |
| 2026-04-30 19:52 | 53.82971 | 9.42033 | 11428 ft | 245 kts | 109° |
| 2026-04-30 19:52 | 53.82095 | 9.44499 | 11432 ft | 248 kts | 131° |
| 2026-04-30 19:52 | 53.80663 | 9.46157 | 11414 ft | 255 kts | 156° |
| 2026-04-30 19:53 | 53.78898 | 9.46629 | 11435 ft | 262 kts | 180° |
| 2026-04-30 19:53 | 53.77123 | 9.45824 | 11430 ft | 269 kts | 204° |
| 2026-04-30 19:53 | 53.75488 | 9.44263 | 11437 ft | 271 kts | 207° |
| 2026-04-30 19:53 | 53.73858 | 9.42640 | 11430 ft | 273 kts | 207° |
| 2026-04-30 19:54 | 53.72217 | 9.41017 | 11429 ft | 274 kts | 207° |
| 2026-04-30 19:54 | 53.70598 | 9.39316 | 11409 ft | 276 kts | 218° |
| 2026-04-30 19:54 | 53.69468 | 9.36721 | 11437 ft | 278 kts | 248° |
| 2026-04-30 19:54 | 53.69180 | 9.33520 | 11426 ft | 278 kts | 277° |
| 2026-04-30 19:55 | 53.69765 | 9.30510 | 11427 ft | 274 kts | 305° |
| 2026-04-30 19:55 | 53.71079 | 9.28287 | 11429 ft | 266 kts | 334° |
| 2026-04-30 19:55 | 53.72792 | 9.27327 | 11435 ft | 258 kts | 0° |
| 2026-04-30 19:55 | 53.74547 | 9.27617 | 11433 ft | 252 kts | 21° |
| 2026-04-30 19:56 | 53.76123 | 9.28845 | 11439 ft | 249 kts | 32° |
| 2026-04-30 19:56 | 53.77628 | 9.30326 | 11429 ft | 251 kts | 34° |
| 2026-04-30 19:56 | 53.79133 | 9.31829 | 11428 ft | 252 kts | 33° |
| 2026-04-30 19:56 | 53.80651 | 9.33331 | 11428 ft | 253 kts | 33° |
| 2026-04-30 19:57 | 53.82099 | 9.34992 | 11412 ft | 250 kts | 50° |
| 2026-04-30 19:57 | 53.82963 | 9.37432 | 11438 ft | 245 kts | 73° |
| 2026-04-30 19:57 | 53.83181 | 9.40260 | 11428 ft | 244 kts | 95° |
| 2026-04-30 19:57 | 53.82716 | 9.43011 | 11426 ft | 246 kts | 117° |
| 2026-04-30 19:58 | 53.81633 | 9.45258 | 11441 ft | 249 kts | 133° |
| 2026-04-30 19:58 | 53.80361 | 9.47274 | 11321 ft | 254 kts | 133° |
| 2026-04-30 19:58 | 53.79056 | 9.49334 | 10925 ft | 260 kts | 134° |
| 2026-04-30 19:58 | 53.77734 | 9.51417 | 10519 ft | 258 kts | 134° |
| 2026-04-30 19:59 | 53.76432 | 9.53467 | 10201 ft | 253 kts | 134° |
| 2026-04-30 19:59 | 53.75155 | 9.55477 | 9850 ft | 249 kts | 134° |
| 2026-04-30 19:59 | 53.72685 | 9.59360 | 9227 ft | 239 kts | 134° |
| 2026-04-30 20:00 | 53.71475 | 9.61261 | 8944 ft | 237 kts | 134° |
| 2026-04-30 20:00 | 53.70269 | 9.63153 | 8676 ft | 238 kts | 134° |
| 2026-04-30 20:00 | 53.69052 | 9.65065 | 8412 ft | 240 kts | 134° |
| 2026-04-30 20:00 | 53.67828 | 9.66990 | 8159 ft | 239 kts | 134° |
| 2026-04-30 20:01 | 53.65396 | 9.70818 | 7665 ft | 237 kts | 134° |
| 2026-04-30 20:01 | 53.64075 | 9.72441 | 7395 ft | 237 kts | 153° |
| 2026-04-30 20:01 | 53.62490 | 9.73022 | 7179 ft | 239 kts | 177° |
| 2026-04-30 20:02 | 53.59485 | 9.70719 | 6708 ft | 252 kts | 226° |
| 2026-04-30 20:02 | 53.58432 | 9.68342 | 6468 ft | 255 kts | 233° |
| 2026-04-30 20:03 | 53.56439 | 9.63362 | 5968 ft | 256 kts | 234° |
| 2026-04-30 20:03 | 53.55454 | 9.60881 | 5715 ft | 255 kts | 234° |
| 2026-04-30 20:03 | 53.54478 | 9.58421 | 5471 ft | 249 kts | 234° |
| 2026-04-30 20:03 | 53.53528 | 9.56023 | 5248 ft | 245 kts | 234° |
| 2026-04-30 20:04 | 53.52598 | 9.53675 | 4984 ft | 244 kts | 234° |
| 2026-04-30 20:04 | 53.51656 | 9.51306 | 4728 ft | 243 kts | 234° |
| 2026-04-30 20:04 | 53.50723 | 9.48964 | 4468 ft | 241 kts | 234° |
| 2026-04-30 20:05 | 53.48865 | 9.44327 | 4044 ft | 237 kts | 234° |
| 2026-04-30 20:05 | 53.47938 | 9.42031 | 4014 ft | 236 kts | 234° |
| 2026-04-30 20:05 | 53.46189 | 9.37692 | 3984 ft | 216 kts | 234° |
| 2026-04-30 20:06 | 53.45357 | 9.35624 | 3981 ft | 213 kts | 234° |
| 2026-04-30 20:06 | 53.44511 | 9.33571 | 3994 ft | 215 kts | 228° |
| 2026-04-30 20:06 | 53.43351 | 9.32053 | 3990 ft | 211 kts | 200° |
| 2026-04-30 20:06 | 53.41933 | 9.31633 | 4003 ft | 207 kts | 172° |
| 2026-04-30 20:07 | 53.40592 | 9.32376 | 4000 ft | 204 kts | 144° |
| 2026-04-30 20:07 | 53.39639 | 9.34093 | 4000 ft | 203 kts | 117° |
| 2026-04-30 20:07 | 53.39457 | 9.38716 | 4001 ft | 204 kts | 84° |
| 2026-04-30 20:08 | 53.39638 | 9.41052 | 3993 ft | 205 kts | 84° |
| 2026-04-30 20:08 | 53.39822 | 9.43422 | 3994 ft | 205 kts | 84° |
| 2026-04-30 20:08 | 53.40006 | 9.45787 | 3988 ft | 205 kts | 84° |
| 2026-04-30 20:08 | 53.40191 | 9.48150 | 3987 ft | 204 kts | 84° |
| 2026-04-30 20:09 | 53.40375 | 9.50497 | 3986 ft | 203 kts | 84° |
| 2026-04-30 20:09 | 53.40579 | 9.52837 | 3987 ft | 203 kts | 77° |
| 2026-04-30 20:09 | 53.42308 | 9.56496 | 3993 ft | 203 kts | 56° |
| 2026-04-30 20:10 | 53.44033 | 9.60272 | 4018 ft | 205 kts | 52° |
| 2026-04-30 20:10 | 53.44938 | 9.62097 | 4024 ft | 206 kts | 52° |
| 2026-04-30 20:10 | 53.45854 | 9.63950 | 4025 ft | 207 kts | 52° |
| 2026-04-30 20:11 | 53.47696 | 9.67694 | 4026 ft | 209 kts | 52° |
| 2026-04-30 20:11 | 53.48619 | 9.69572 | 4025 ft | 208 kts | 52° |
| 2026-04-30 20:11 | 53.49535 | 9.71435 | 3842 ft | 206 kts | 52° |
| 2026-04-30 20:12 | 53.51283 | 9.74985 | 3343 ft | 189 kts | 52° |
| 2026-04-30 20:12 | 53.52104 | 9.76653 | 3093 ft | 183 kts | 52° |
| 2026-04-30 20:12 | 53.52909 | 9.78290 | 2854 ft | 182 kts | 52° |
| 2026-04-30 20:13 | 53.53709 | 9.79917 | 2625 ft | 184 kts | 52° |
| 2026-04-30 20:13 | 53.54522 | 9.81567 | 2373 ft | 182 kts | 53° |
| 2026-04-30 20:13 | 53.55317 | 9.83180 | 2155 ft | 177 kts | 53° |
| 2026-04-30 20:13 | 53.56098 | 9.84767 | 1906 ft | 176 kts | 53° |
| 2026-04-30 20:14 | 53.56872 | 9.86337 | 1660 ft | 169 kts | 53° |
| 2026-04-30 20:14 | 53.57584 | 9.87778 | 1447 ft | 153 kts | 53° |
| 2026-04-30 20:14 | 53.58240 | 9.89108 | 1261 ft | 144 kts | 53° |
| 2026-04-30 20:14 | 53.58878 | 9.90403 | 1073 ft | 144 kts | 53° |
| 2026-04-30 20:15 | 53.59522 | 9.91709 | 891 ft | 146 kts | 52° |
| 2026-04-30 20:15 | 53.60162 | 9.93005 | 694 ft | 145 kts | 51° |
| 2026-04-30 20:15 | 53.60804 | 9.94303 | 497 ft | 143 kts | 51° |
| 2026-04-30 20:15 | 53.61443 | 9.95598 | 283 ft | 144 kts | 51° |
| 2026-04-30 20:16 | 53.62080 | 9.96892 | 57 ft | 143 kts | 51° |
| 2026-04-30 20:16 | 53.62666 | 9.98095 | 41 ft | 101 kts | 50° |
| 2026-04-30 20:16 | 53.62955 | 9.98653 | 44 ft | 33 kts | 51° |
| 2026-04-30 20:16 | 53.63083 | 9.99005 | 42 ft | 30 kts | 77° |
| 2026-04-30 20:17 | 53.63089 | 9.99168 | 45 ft | 4 kts | 94° |
| 2026-04-30 20:17 | 53.63088 | 9.99199 | 46 ft | 0 kts | 95° |
| 2026-04-30 20:18 | 53.63086 | 9.99226 | 46 ft | 7 kts | 95° |
| 2026-04-30 20:18 | 53.63084 | 9.99288 | 46 ft | 2 kts | 93° |
| 2026-04-30 20:18 | 53.63083 | 9.99289 | 46 ft | 0 kts | 93° |
| 2026-04-30 20:19 | 53.63083 | 9.99293 | 46 ft | 2 kts | 93° |
| 2026-04-30 20:20 | 53.63088 | 9.99353 | 46 ft | 5 kts | 75° |
| 2026-04-30 20:20 | 53.63088 | 9.99355 | 46 ft | 0 kts | 75° |
| 2026-04-30 20:22 | 53.63093 | 9.99377 | 46 ft | 9 kts | 66° |
| 2026-04-30 20:22 | 53.63140 | 9.99499 | 45 ft | 13 kts | 53° |
| 2026-04-30 20:22 | 53.63194 | 9.99614 | 46 ft | 8 kts | 51° |
| 2026-04-30 20:23 | 53.63211 | 9.99649 | 47 ft | 2 kts | 51° |
| 2026-04-30 20:23 | 53.63215 | 9.99657 | 47 ft | 0 kts | 51° |
| 2026-04-30 20:24 | 53.63221 | 9.99679 | 47 ft | 5 kts | 74° |
| 2026-04-30 20:24 | 53.63219 | 9.99738 | 45 ft | 5 kts | 111° |
| 2026-04-30 20:24 | 53.63194 | 9.99780 | 47 ft | 5 kts | 146° |
| 2026-04-30 20:24 | 53.63164 | 9.99811 | 47 ft | 5 kts | 149° |
| 2026-04-30 20:25 | 53.63131 | 9.99902 | 47 ft | 5 kts | 83° |
| 2026-04-30 20:25 | 53.63144 | 9.99955 | 46 ft | 5 kts | 54° |
| 2026-04-30 20:26 | 53.63150 | 10.00009 | 47 ft | 1 kts | 117° |
| 2026-04-30 20:26 | 53.63135 | 10.00038 | 45 ft | 0 kts | 136° |
| 2026-04-30 20:26 | 53.63133 | 10.00042 | 46 ft | 1 kts | 136° |
| 2026-04-30 20:27 | 53.63120 | 10.00060 | 47 ft | 0 kts | 140° |